Time;durP1;ratioP1;P1;durP2;ratioP2;P2;SDS_P1;SDS_P2;PMS_P1;PMS_P2;Temp;Humidity;BMP_temperature;BMP_pressure;BME280_temperature;BME280_humidity;BME280_pressure;Samples;Min_cycle;Max_cycle;Signal;HPM_P1;HPM_P2
2022/11/09 00:01:37;;;;;;;36.38;23.30;;;;;;;3.80;73.15;97371.34;1650869;86;25964;-76
2022/11/09 00:04:05;;;;;;;33.80;21.73;;;;;;;3.74;73.17;97376.88;1650866;86;25742;-73
2022/11/09 00:06:33;;;;;;;34.88;21.25;;;;;;;3.72;73.34;97374.87;1650813;86;26490;-76
2022/11/09 00:09:03;;;;;;;25.12;17.98;;;;;;;3.71;73.38;97374.53;1650877;86;25300;-73
2022/11/09 00:11:29;;;;;;;29.50;17.77;;;;;;;3.73;73.44;97368.53;1650903;86;27395;-74
2022/11/09 00:13:56;;;;;;;24.57;17.02;;;;;;;3.73;73.46;97373.87;1650800;86;25825;-73
2022/11/09 00:16:22;;;;;;;29.85;18.20;;;;;;;3.74;73.51;97369.36;1650881;86;25267;-73
2022/11/09 00:18:50;;;;;;;29.70;17.87;;;;;;;3.74;73.53;97370.20;1650807;86;25823;-74
2022/11/09 00:21:20;;;;;;;30.10;19.07;;;;;;;3.73;73.60;97364.52;1650787;86;25999;-74
2022/11/09 00:23:48;;;;;;;35.60;18.67;;;;;;;3.71;73.59;97373.20;1650675;86;27452;-73
2022/11/09 00:26:16;;;;;;;27.58;16.32;;;;;;;3.71;73.63;97361.19;1650861;86;25794;-73
2022/11/09 00:28:44;;;;;;;24.95;15.03;;;;;;;3.69;73.79;97367.19;1650925;86;26243;-73
2022/11/09 00:31:17;;;;;;;29.42;17.15;;;;;;;3.67;73.99;97365.19;1650690;86;26516;-73
2022/11/09 00:33:50;;;;;;;26.82;17.17;;;;;;;3.67;73.96;97367.02;1629550;87;25778;-73
2022/11/09 00:36:18;;;;;;;28.15;16.75;;;;;;;3.69;73.93;97366.36;1631787;87;27484;-76
2022/11/09 00:38:51;;;;;;;30.82;18.23;;;;;;;3.70;73.87;97363.52;1631757;87;25930;-73
2022/11/09 00:41:19;;;;;;;25.82;17.17;;;;;;;3.69;73.79;97360.52;1631788;87;25343;-73
2022/11/09 00:43:46;;;;;;;30.95;18.50;;;;;;;3.69;73.80;97359.68;1631782;87;25824;-73
2022/11/09 00:46:13;;;;;;;28.32;19.10;;;;;;;3.69;73.80;97359.18;1642052;86;25805;-75
2022/11/09 00:48:40;;;;;;;26.55;19.10;;;;;;;3.68;73.84;97357.52;1652750;86;27561;-76
2022/11/09 00:51:07;;;;;;;25.62;18.25;;;;;;;3.67;73.88;97357.67;1653358;86;25757;-75
2022/11/09 00:53:34;;;;;;;27.25;18.50;;;;;;;3.66;73.91;97358.67;1654020;86;25935;-73
2022/11/09 00:56:09;;;;;;;24.90;17.77;;;;;;;3.66;73.94;97352.84;1653932;86;25862;-73
2022/11/09 00:58:38;;;;;;;30.37;18.57;;;;;;;3.66;73.96;97356.84;1653745;86;25501;-73
2022/11/09 01:01:16;;;;;;;23.10;15.55;;;;;;;3.65;74.10;97357.84;1653764;86;28357;-73
2022/11/09 01:03:44;;;;;;;22.25;15.50;;;;;;;3.64;74.17;97352.17;1653792;86;25805;-73
2022/11/09 01:06:20;;;;;;;23.18;15.60;;;;;;;3.62;74.22;97348.86;1653913;86;25769;-73
2022/11/09 01:08:48;;;;;;;22.15;15.00;;;;;;;3.62;74.20;97350.20;1654084;86;25889;-75
2022/11/09 01:11:17;;;;;;;23.67;14.68;;;;;;;3.60;74.31;97358.87;1653875;86;25619;-73
2022/11/09 01:13:44;;;;;;;21.37;15.13;;;;;;;3.63;74.33;97355.84;1653978;86;28224;-73
2022/11/09 01:16:15;;;;;;;18.82;13.35;;;;;;;3.62;74.29;97352.33;1653868;86;25694;-76
2022/11/09 01:18:42;;;;;;;24.65;15.55;;;;;;;3.60;74.31;97356.20;1653840;86;25769;-73
2022/11/09 01:21:12;;;;;;;27.87;17.90;;;;;;;3.62;74.37;97350.20;1653842;86;25781;-73
2022/11/09 01:23:41;;;;;;;25.82;15.53;;;;;;;3.63;74.38;97353.17;1653827;86;25838;-73
2022/11/09 01:26:11;;;;;;;23.07;15.35;;;;;;;3.63;74.40;97345.16;1653890;86;28076;-73
2022/11/09 01:28:39;;;;;;;23.77;15.55;;;;;;;3.59;74.44;97346.02;1654077;86;25881;-74
2022/11/09 01:31:10;;;;;;;22.55;14.93;;;;;;;3.59;74.42;97343.85;1714772;82;25797;-72
2022/11/09 01:33:37;;;;;;;21.80;14.13;;;;;;;3.53;74.38;97340.01;1733455;82;25769;-73
2022/11/09 01:36:10;;;;;;;20.92;14.33;;;;;;;3.50;74.50;97347.02;1733399;81;25738;-74
2022/11/09 01:38:38;;;;;;;23.47;15.28;;;;;;;3.46;74.50;97340.36;1733657;82;27490;-73
2022/11/09 01:41:07;;;;;;;26.42;16.15;;;;;;;3.44;74.68;97346.86;1733490;82;25414;-73
2022/11/09 01:43:34;;;;;;;28.80;15.72;;;;;;;3.42;74.76;97335.52;1733642;82;25248;-73
2022/11/09 01:46:06;;;;;;;22.52;14.78;;;;;;;3.42;74.92;97336.85;1733678;82;25917;-75
2022/11/09 01:48:59;;;;;;;18.75;12.78;;;;;;;3.39;75.23;97341.19;1731316;82;32816;-75
2022/11/09 01:51:28;;;;;;;;;;;;;;;3.34;75.34;97336.88;1736094;82;27398;-73
2022/11/09 01:54:03;;;;;;;21.10;13.55;;;;;;;3.33;75.77;97333.87;1733659;81;25685;-75
2022/11/09 01:56:32;;;;;;;27.37;15.05;;;;;;;3.30;75.63;97332.36;1730926;82;25733;-75
2022/11/09 01:59:07;;;;;;;22.48;13.98;;;;;;;3.30;75.56;97328.36;1733567;82;26557;-73
2022/11/09 02:01:35;;;;;;;20.97;13.60;;;;;;;3.32;75.57;97330.86;1733750;81;25707;-72
2022/11/09 02:04:16;;;;;;;20.20;12.43;;;;;;;3.34;75.60;97331.53;1733567;82;28465;-73
2022/11/09 02:06:44;;;;;;;19.98;12.50;;;;;;;3.37;75.60;97335.21;1649073;86;25499;-74
2022/11/09 02:09:47;;;;;;;17.25;11.30;;;;;;;3.40;75.62;97331.68;1653896;86;25801;-74
2022/11/09 02:12:16;;;;;;;18.98;12.30;;;;;;;3.40;75.59;97337.52;1654018;86;25789;-73
2022/11/09 02:14:45;;;;;;;20.23;13.30;;;;;;;3.42;75.57;97334.19;1653961;86;25735;-75
2022/11/09 02:17:12;;;;;;;24.90;15.55;;;;;;;3.43;75.55;97328.69;1653986;86;27604;-75
2022/11/09 02:19:38;;;;;;;25.40;14.03;;;;;;;3.41;75.49;97330.69;1653870;86;25502;-73
2022/11/09 02:22:05;;;;;;;17.05;11.70;;;;;;;3.42;75.52;97324.34;1653905;86;25813;-73
2022/11/09 02:24:33;;;;;;;19.55;11.97;;;;;;;3.43;75.49;97322.02;1653953;86;25844;-73
2022/11/09 02:27:00;;;;;;;17.57;11.70;;;;;;;3.41;75.54;97317.34;1653856;86;25842;-73
2022/11/09 02:29:40;;;;;;;24.57;15.15;;;;;;;3.38;75.54;97315.53;1653860;86;28395;-76
2022/11/09 02:32:15;;;;;;;24.23;13.30;;;;;;;3.34;75.58;97315.53;1603638;89;25837;-74
2022/11/09 02:34:41;;;;;;;16.75;11.57;;;;;;;3.31;75.63;97325.19;1560820;91;25842;-73
2022/11/09 02:37:08;;;;;;;18.87;11.38;;;;;;;3.31;75.67;97314.52;1558961;92;25849;-74
2022/11/09 02:39:35;;;;;;;18.00;10.90;;;;;;;3.31;75.81;97316.69;1562640;91;25841;-74
2022/11/09 02:42:09;;;;;;;15.53;10.70;;;;;;;3.30;75.87;97320.36;1563854;91;28630;-76
2022/11/09 02:44:47;;;;;;;17.42;11.35;;;;;;;3.29;75.90;97320.02;1563852;91;25795;-73
2022/11/09 02:47:13;;;;;;;19.00;11.85;;;;;;;3.31;75.88;97323.36;1563677;91;25830;-73
2022/11/09 02:49:40;;;;;;;17.02;11.50;;;;;;;3.31;75.87;97319.86;1563770;91;26544;-73
2022/11/09 02:52:07;;;;;;;15.35;10.18;;;;;;;3.31;75.85;97322.52;1547121;91;25529;-74
2022/11/09 02:54:33;;;;;;;14.05;10.15;;;;;;;3.32;75.92;97325.53;1547309;92;27396;-75
2022/11/09 02:57:00;;;;;;;15.18;10.70;;;;;;;3.32;75.92;97324.19;1547148;92;25619;-73
2022/11/09 02:59:26;;;;;;;14.07;10.65;;;;;;;3.34;75.87;97319.53;1547336;92;25804;-75
2022/11/09 03:01:53;;;;;;;14.58;10.00;;;;;;;3.32;75.85;97319.70;1547297;92;25807;-73
2022/11/09 03:04:20;;;;;;;14.43;9.75;;;;;;;3.32;75.85;97324.19;1578035;90;26455;-73
2022/11/09 03:06:46;;;;;;;17.87;10.18;;;;;;;3.31;75.93;97315.36;1582069;90;27233;-73
2022/11/09 03:09:13;;;;;;;13.90;9.53;;;;;;;3.29;75.92;97309.34;1581997;90;25883;-74
2022/11/09 03:11:41;;;;;;;14.75;9.68;;;;;;;3.31;75.92;97321.19;1582095;90;25828;-74
2022/11/09 03:14:11;;;;;;;16.77;8.88;;;;;;;3.28;75.94;97322.85;1582105;90;25810;-73
2022/11/09 03:16:38;;;;;;;14.58;10.30;;;;;;;3.23;75.94;97328.21;1582109;90;25788;-73
2022/11/09 03:19:06;;;;;;;15.72;10.00;;;;;;;3.16;76.03;97320.52;1582036;90;27622;-72
2022/11/09 03:21:34;;;;;;;16.45;9.58;;;;;;;3.15;76.11;97318.86;1582019;90;26954;-75
2022/11/09 03:24:00;;;;;;;13.43;8.88;;;;;;;3.15;76.14;97317.52;1582215;90;25842;-76
2022/11/09 03:26:27;;;;;;;14.83;8.85;;;;;;;3.14;76.19;97327.85;1582132;90;26463;-73
2022/11/09 03:28:53;;;;;;;16.48;9.63;;;;;;;3.13;76.27;97320.05;1619464;88;25762;-75
2022/11/09 03:31:20;;;;;;;16.02;10.10;;;;;;;3.15;76.28;97325.52;1643432;86;27449;-74
2022/11/09 03:33:47;;;;;;;17.77;10.25;;;;;;;3.14;76.32;97323.86;1694548;84;25510;-72
2022/11/09 03:36:14;;;;;;;15.10;10.45;;;;;;;3.13;76.29;97322.22;1669398;85;25898;-73
2022/11/09 03:38:40;;;;;;;15.32;9.78;;;;;;;3.14;76.29;97326.52;1694611;84;26366;-75
2022/11/09 03:41:07;;;;;;;19.35;10.60;;;;;;;3.11;76.25;97322.88;1669661;85;25452;-73
2022/11/09 03:43:34;;;;;;;15.00;9.73;;;;;;;3.07;76.23;97328.20;1694580;84;27592;-75
2022/11/09 03:46:00;;;;;;;15.55;11.03;;;;;;;3.05;76.22;97326.19;1669634;85;25686;-75
2022/11/09 03:48:27;;;;;;;17.62;11.60;;;;;;;3.03;76.25;97327.36;1694612;84;25687;-73
2022/11/09 03:50:53;;;;;;;18.95;11.15;;;;;;;3.01;76.37;97322.22;1684088;83;26542;-74
2022/11/09 03:53:20;;;;;;;17.40;12.35;;;;;;;3.00;76.39;97320.55;1709548;83;25397;-73
2022/11/09 03:55:46;;;;;;;22.48;13.50;;;;;;;2.98;76.42;97313.20;1709660;83;27417;-75
2022/11/09 03:58:13;;;;;;;20.65;15.00;;;;;;;2.97;76.49;97326.20;1709655;83;25813;-73
2022/11/09 04:00:43;;;;;;;24.37;13.32;;;;;;;2.98;76.54;97319.03;1709747;83;25769;-73
2022/11/09 04:03:09;;;;;;;20.68;13.00;;;;;;;2.99;76.49;97326.04;1709716;83;25829;-73
2022/11/09 04:05:36;;;;;;;18.05;11.08;;;;;;;2.99;76.47;97318.04;1709754;83;25719;-73
2022/11/09 04:08:03;;;;;;;19.30;11.70;;;;;;;2.99;76.49;97319.38;1709592;83;26848;-76
2022/11/09 04:10:29;;;;;;;20.32;12.55;;;;;;;2.93;76.47;97320.02;1709552;83;25661;-73
2022/11/09 04:12:56;;;;;;;19.90;12.10;;;;;;;2.91;76.51;97305.52;1718157;83;25674;-73
2022/11/09 04:15:22;;;;;;;19.85;11.45;;;;;;;2.90;76.48;97312.69;1718097;83;26294;-73
2022/11/09 04:17:58;;;;;;;23.83;14.78;;;;;;;2.88;76.58;97306.70;1718018;83;25261;-72
2022/11/09 04:20:27;;;;;;;24.87;14.33;;;;;;;2.84;76.60;97308.03;1632016;87;27475;-76
2022/11/09 04:22:58;;;;;;;20.15;11.95;;;;;;;2.81;76.68;97306.18;1632112;87;25613;-74
2022/11/09 04:25:25;;;;;;;20.15;12.37;;;;;;;2.81;76.84;97307.02;1613870;88;26375;-73
2022/11/09 04:27:56;;;;;;;21.80;13.50;;;;;;;2.83;76.96;97300.19;1629609;88;25732;-73
2022/11/09 04:30:26;;;;;;;20.70;13.98;;;;;;;2.88;77.11;97306.70;1613741;88;26090;-73
2022/11/09 04:32:54;;;;;;;22.48;14.85;;;;;;;2.92;77.21;97303.19;1629780;88;27482;-73
2022/11/09 04:35:20;;;;;;;22.75;14.73;;;;;;;2.94;77.27;97307.03;1613608;88;26048;-74
2022/11/09 04:38:05;;;;;;;23.80;13.80;;;;;;;2.98;77.44;97313.20;1629645;88;25827;-75
2022/11/09 04:40:34;;;;;;;19.17;11.93;;;;;;;3.00;77.43;97313.88;1613792;88;26577;-73
2022/11/09 04:43:04;;;;;;;18.60;11.08;;;;;;;2.98;77.29;97312.38;1629666;88;25852;-73
2022/11/09 04:45:34;;;;;;;26.02;12.65;;;;;;;2.95;77.22;97312.20;1586906;90;27401;-73
2022/11/09 04:48:03;;;;;;;21.00;12.30;;;;;;;2.97;77.24;97319.53;1629633;88;25830;-73
2022/11/09 04:50:30;;;;;;;16.50;12.07;;;;;;;3.01;77.24;97326.21;1613473;88;25843;-73
2022/11/09 04:53:13;;;;;;;15.75;10.95;;;;;;;3.00;77.15;97320.55;1608323;89;25804;-73
2022/11/09 04:55:40;;;;;;;17.00;11.68;;;;;;;2.99;77.07;97325.54;1608610;89;25729;-73
2022/11/09 04:58:08;;;;;;;21.65;12.75;;;;;;;2.99;77.12;97325.54;1608081;89;45435;-74
2022/11/09 05:00:35;;;;;;;22.65;12.45;;;;;;;2.99;77.16;97325.54;1608400;89;25859;-73
2022/11/09 05:03:04;;;;;;;23.22;12.43;;;;;;;3.00;77.12;97330.38;1608224;89;25776;-73
2022/11/09 05:05:33;;;;;;;23.70;14.63;;;;;;;2.99;77.14;97329.54;1608531;89;26490;-73
2022/11/09 05:08:01;;;;;;;20.80;12.58;;;;;;;2.98;77.08;97326.54;1608517;89;25788;-74
2022/11/09 05:10:28;;;;;;;23.60;12.78;;;;;;;2.98;77.09;97327.03;1608509;89;27589;-75
2022/11/09 05:13:07;;;;;;;25.50;15.23;;;;;;;2.96;77.09;97319.20;1608389;89;25850;-74
2022/11/09 05:15:35;;;;;;;31.37;15.78;;;;;;;2.98;77.02;97322.54;1564197;91;25875;-75
2022/11/09 05:18:02;;;;;;;25.88;14.13;;;;;;;2.97;77.01;97318.20;1594112;90;25743;-73
2022/11/09 05:20:29;;;;;;;27.00;15.13;;;;;;;2.98;76.95;97316.38;1607510;89;25601;-75
2022/11/09 05:25:43;;;;;;;36.13;16.45;;;;;;;2.95;76.95;97317.53;1640491;87;25835;-73
2022/11/09 05:28:10;;;;;;;33.05;16.70;;;;;;;2.93;76.97;97315.52;1640706;87;25472;-73
2022/11/09 05:30:37;;;;;;;30.48;17.20;;;;;;;2.91;76.98;97313.52;1640731;87;26618;-75
2022/11/09 05:33:04;;;;;;;37.15;19.50;;;;;;;2.89;76.93;97312.88;1640756;87;26862;-73
2022/11/09 05:35:33;;;;;;;37.80;20.02;;;;;;;2.88;76.95;97305.88;1640618;87;28151;-74
2022/11/09 05:37:59;;;;;;;41.58;21.42;;;;;;;2.87;77.00;97311.70;1640513;87;25852;-73
2022/11/09 05:40:26;;;;;;;39.05;19.92;;;;;;;2.88;77.04;97319.20;1640657;87;25740;-75
2022/11/09 05:42:54;;;;;;;38.83;19.07;;;;;;;2.86;77.00;97310.03;1640690;86;26492;-74
2022/11/09 05:45:21;;;;;;;34.92;18.57;;;;;;;2.88;77.03;97315.20;1640756;87;25804;-75
2022/11/09 05:47:47;;;;;;;36.38;17.42;;;;;;;2.88;76.98;97317.87;1637791;86;27380;-74
2022/11/09 05:50:15;;;;;;;33.95;18.70;;;;;;;2.88;76.98;97314.70;1635633;87;26005;-74
2022/11/09 05:52:42;;;;;;;27.58;17.70;;;;;;;2.88;76.96;97314.70;1650692;86;25801;-73
2022/11/09 05:55:09;;;;;;;32.95;17.67;;;;;;;2.88;76.96;97314.70;1652735;86;25829;-74
2022/11/09 05:57:35;;;;;;;33.83;17.23;;;;;;;2.87;76.92;97312.20;1652787;86;25840;-74
2022/11/09 06:00:05;;;;;;;38.13;18.37;;;;;;;2.84;76.94;97314.69;1652758;86;27661;-73
2022/11/09 06:02:32;;;;;;;34.85;19.40;;;;;;;2.82;77.02;97314.02;1652469;86;25774;-73
2022/11/09 06:04:58;;;;;;;34.35;18.23;;;;;;;2.84;77.04;97325.86;1652454;86;25774;-74
2022/11/09 06:07:25;;;;;;;30.68;17.77;;;;;;;2.83;77.03;97322.85;1652647;86;26444;-73
2022/11/09 06:09:52;;;;;;;37.35;17.65;;;;;;;2.83;77.02;97321.52;1652812;86;25602;-75
2022/11/09 06:12:18;;;;;;;30.45;17.40;;;;;;;2.84;77.04;97319.19;1689088;83;27397;-73
2022/11/09 06:14:45;;;;;;;26.93;17.23;;;;;;;2.85;77.04;97316.86;1710002;83;25819;-75
2022/11/09 06:17:11;;;;;;;28.45;18.25;;;;;;;2.84;77.03;97314.69;1710039;83;25753;-73
2022/11/09 06:19:38;;;;;;;33.33;18.37;;;;;;;2.84;77.06;97314.69;1710007;83;26278;-73
2022/11/09 06:22:08;;;;;;;39.58;19.45;;;;;;;2.83;77.12;97316.19;1709893;83;25701;-74
2022/11/09 06:24:34;;;;;;;49.40;26.17;;;;;;;2.84;77.15;97324.52;1687687;83;27389;-73
2022/11/09 06:27:01;;;;;;;49.13;22.82;;;;;;;2.83;77.19;97325.52;1710066;83;25591;-75
2022/11/09 06:29:28;;;;;;;40.65;21.15;;;;;;;2.82;77.25;97323.84;1710133;83;25729;-74
2022/11/09 06:31:54;;;;;;;37.23;20.15;;;;;;;2.82;77.32;97331.34;1710019;83;25671;-73
2022/11/09 06:34:21;;;;;;;50.38;28.17;;;;;;;2.83;77.40;97329.52;1710086;83;25433;-73
2022/11/09 06:36:47;;;;;;;61.95;32.03;;;;;;;2.85;77.66;97327.52;1710114;83;28180;-73
2022/11/09 06:39:14;;;;;;;62.08;31.40;;;;;;;2.88;77.73;97317.87;1710012;83;25698;-73
2022/11/09 06:41:40;;;;;;;56.13;31.15;;;;;;;2.94;78.13;97317.19;1710282;83;25734;-73
2022/11/09 06:44:07;;;;;;;46.88;27.00;;;;;;;3.06;78.58;97322.53;1710134;83;25758;-74
2022/11/09 06:46:34;;;;;;;44.33;24.27;;;;;;;3.19;78.92;97322.87;1710181;83;25725;-75
2022/11/09 06:49:01;;;;;;;38.25;23.45;;;;;;;3.36;79.11;97318.87;1710140;83;27877;-74
2022/11/09 06:51:27;;;;;;;35.68;21.70;;;;;;;3.54;79.32;97314.16;1711192;83;25691;-73
2022/11/09 06:53:54;;;;;;;36.80;22.10;;;;;;;3.67;79.30;97309.13;1715022;83;25829;-74
2022/11/09 06:56:20;;;;;;;35.28;21.50;;;;;;;3.81;79.38;97308.93;1715286;83;25722;-74
2022/11/09 06:58:47;;;;;;;33.35;19.95;;;;;;;3.96;79.45;97313.39;1715395;83;25792;-75
2022/11/09 07:01:18;;;;;;;33.33;19.50;;;;;;;4.14;79.69;97313.64;1715225;83;27375;-73
2022/11/09 07:03:45;;;;;;;34.80;20.23;;;;;;;4.32;79.83;97308.41;1715229;83;25682;-74
2022/11/09 07:06:12;;;;;;;35.50;19.40;;;;;;;4.49;79.88;97311.80;1715353;83;25721;-73
2022/11/09 07:08:40;;;;;;;35.50;19.25;;;;;;;4.64;79.73;97310.05;1715327;83;26248;-75
2022/11/09 07:11:12;;;;;;;33.30;19.20;;;;;;;4.76;79.61;97310.98;1715286;83;25834;-73
2022/11/09 07:13:42;;;;;;;30.77;16.40;;;;;;;4.87;79.79;97310.56;1715292;83;28072;-75
2022/11/09 07:16:11;;;;;;;25.50;16.70;;;;;;;5.06;79.91;97310.11;1715186;83;25238;-73
2022/11/09 07:18:37;;;;;;;27.87;17.45;;;;;;;5.21;79.75;97312.31;1715544;83;25677;-73
2022/11/09 07:21:05;;;;;;;29.77;16.75;;;;;;;5.31;79.40;97314.76;1715325;83;25892;-75
2022/11/09 07:23:31;;;;;;;26.52;15.43;;;;;;;5.38;79.20;97320.53;1715024;83;25631;-74
2022/11/09 07:25:59;;;;;;;24.87;15.68;;;;;;;5.46;79.01;97317.45;1715273;83;27379;-76
2022/11/09 07:28:25;;;;;;;20.80;14.25;;;;;;;5.52;78.83;97315.40;1715091;83;25852;-74
2022/11/09 07:30:52;;;;;;;19.05;12.50;;;;;;;5.57;78.59;97310.31;1715154;83;25680;-76
2022/11/09 07:33:21;;;;;;;19.87;13.18;;;;;;;5.61;78.45;97316.98;1715332;83;25688;-75
2022/11/09 07:35:48;;;;;;;20.80;13.88;;;;;;;5.67;78.37;97315.76;1715396;83;25717;-73
2022/11/09 07:38:14;;;;;;;21.00;12.90;;;;;;;5.75;78.36;97325.55;1715339;83;27366;-75
2022/11/09 07:40:42;;;;;;;19.90;12.45;;;;;;;5.85;78.46;97322.59;1715183;83;25282;-75
2022/11/09 07:43:11;;;;;;;25.27;13.20;;;;;;;5.94;78.32;97321.01;1715279;83;25684;-74
2022/11/09 07:45:38;;;;;;;24.18;12.63;;;;;;;6.04;78.17;97320.22;1715179;83;25768;-73
2022/11/09 07:48:09;;;;;;;21.45;11.78;;;;;;;6.16;78.14;97321.13;1715344;83;25851;-73
2022/11/09 07:50:38;;;;;;;18.05;11.78;;;;;;;6.29;78.10;97323.95;1715344;83;27391;-73
2022/11/09 07:53:06;;;;;;;16.95;10.88;;;;;;;6.43;78.06;97317.23;1723239;83;25507;-73
2022/11/09 07:55:34;;;;;;;18.17;12.10;;;;;;;6.60;77.81;97317.86;1726219;83;25610;-75
2022/11/09 07:58:14;;;;;;;19.55;11.78;;;;;;;6.74;77.74;97318.34;1726150;83;25748;-74
2022/11/09 08:00:42;;;;;;;17.62;11.05;;;;;;;6.88;77.64;97318.78;1726163;83;25783;-74
2022/11/09 08:03:09;;;;;;;18.52;10.63;;;;;;;7.05;77.59;97310.49;1726089;83;27299;-74
2022/11/09 08:05:37;;;;;;;31.35;17.15;;;;;;;7.24;77.49;97311.22;1726022;83;25838;-73
2022/11/09 08:08:09;;;;;;;33.35;16.02;;;;;;;7.44;77.36;97308.18;1726177;83;25753;-72
2022/11/09 08:10:36;;;;;;;27.37;15.08;;;;;;;7.65;77.08;97299.76;1639260;87;25768;-75
2022/11/09 08:13:12;;;;;;;32.60;15.35;;;;;;;7.84;76.85;97300.42;1639361;87;25532;-73
2022/11/09 08:15:41;;;;;;;29.00;15.80;;;;;;;8.00;76.71;97297.41;1653006;86;27448;-75
2022/11/09 08:18:12;;;;;;;26.12;16.07;;;;;;;8.21;76.39;97293.28;1599271;87;25861;-73
2022/11/09 08:20:39;;;;;;;24.82;13.85;;;;;;;8.45;76.34;97300.59;1569497;90;26804;-73
2022/11/09 08:23:06;;;;;;;23.07;13.35;;;;;;;8.71;76.04;97295.28;1567916;90;26576;-73
2022/11/09 08:25:34;;;;;;;21.25;13.50;;;;;;;8.97;75.85;97298.05;1557044;90;25840;-74
2022/11/09 08:28:02;;;;;;;18.75;12.30;;;;;;;9.23;75.58;97299.13;1556961;92;27509;-73
2022/11/09 08:30:29;;;;;;;17.30;11.95;;;;;;;9.49;75.13;97289.73;1556874;92;25770;-74
2022/11/09 08:32:55;;;;;;;20.15;12.15;;;;;;;9.73;74.85;97295.01;1557058;92;25927;-74
2022/11/09 08:35:23;;;;;;;20.52;13.43;;;;;;;9.94;74.41;97288.55;1556984;92;25796;-73
2022/11/09 08:37:51;;;;;;;16.80;12.00;;;;;;;10.14;74.11;97297.96;1557112;92;25559;-73
2022/11/09 08:40:22;;;;;;;16.07;11.28;;;;;;;10.31;73.40;97296.48;1556935;92;27988;-72
2022/11/09 08:42:49;;;;;;;17.65;11.40;;;;;;;10.48;73.05;97305.78;1557036;92;25772;-74
2022/11/09 08:45:17;;;;;;;14.15;10.32;;;;;;;10.65;72.56;97291.26;1556961;92;25840;-72
2022/11/09 08:47:44;;;;;;;16.37;11.43;;;;;;;10.80;72.19;97290.47;1557119;92;25762;-74
2022/11/09 08:50:13;;;;;;;14.60;11.25;;;;;;;10.97;71.87;97300.26;1557133;92;25747;-75
2022/11/09 08:52:40;;;;;;;17.17;10.68;;;;;;;11.16;71.59;97297.42;1557089;92;27638;-73
2022/11/09 08:55:08;;;;;;;14.80;9.93;;;;;;;11.31;70.59;97296.30;1557244;92;25908;-74
2022/11/09 08:57:34;;;;;;;14.38;10.38;;;;;;;11.45;70.76;97289.76;1557431;92;25827;-73
2022/11/09 09:00:01;;;;;;;15.58;9.73;;;;;;;11.60;70.41;97287.53;1557438;92;25799;-73
2022/11/09 09:02:28;;;;;;;16.20;10.00;;;;;;;11.78;70.06;97290.34;1557256;92;25927;-73
2022/11/09 09:04:55;;;;;;;13.78;9.75;;;;;;;11.97;69.71;97280.89;1557452;92;28198;-74
2022/11/09 09:07:22;;;;;;;14.70;9.98;;;;;;;12.14;69.38;97279.28;1557315;92;25803;-73
2022/11/09 09:09:48;;;;;;;12.80;9.10;;;;;;;12.35;69.11;97285.59;1557619;92;25791;-74
2022/11/09 09:12:15;;;;;;;13.72;9.55;;;;;;;12.49;68.70;97278.98;1557556;92;26462;-73
2022/11/09 09:14:41;;;;;;;14.50;9.58;;;;;;;12.66;68.26;97285.14;1589963;89;25856;-74
2022/11/09 09:17:08;;;;;;;14.50;9.05;;;;;;;12.81;67.97;97281.48;1634791;83;27398;-73
2022/11/09 09:19:35;;;;;;;12.98;9.73;;;;;;;12.90;66.95;97282.85;1726028;83;25657;-73
2022/11/09 09:22:01;;;;;;;15.25;10.08;;;;;;;13.00;67.02;97288.55;1712413;83;25732;-74
2022/11/09 09:24:28;;;;;;;12.93;9.00;;;;;;;13.15;66.78;97282.75;1724146;83;25740;-77
2022/11/09 09:26:55;;;;;;;13.70;9.95;;;;;;;13.31;66.46;97281.55;1752966;81;25636;-75
2022/11/09 09:29:21;;;;;;;15.35;10.35;;;;;;;13.45;66.08;97278.63;1752195;81;27378;-76
2022/11/09 09:31:48;;;;;;;12.28;8.55;;;;;;;13.55;65.69;97267.51;1756205;81;25476;-74
2022/11/09 09:34:14;;;;;;;11.03;8.30;;;;;;;13.76;64.56;97273.45;1756294;81;25781;-73
2022/11/09 09:36:41;;;;;;;15.93;9.68;;;;;;;13.88;64.97;97269.69;1756317;81;26503;-73
2022/11/09 09:39:08;;;;;;;13.78;8.60;;;;;;;14.00;64.53;97262.38;1734003;82;25698;-74
2022/11/09 09:41:49;;;;;;;12.23;8.58;;;;;;;14.10;64.16;97260.95;1737571;82;27371;-75
2022/11/09 09:44:54;;;;;;;12.43;9.33;;;;;;;14.25;64.04;97265.36;1737664;82;25191;-73
2022/11/09 09:47:40;;;;;;;11.73;7.83;;;;;;;14.46;63.79;97262.05;1737542;82;25724;-73
2022/11/09 09:50:18;;;;;;;11.40;8.53;;;;;;;14.70;63.44;97258.20;1734531;82;25744;-73
2022/11/09 09:53:23;;;;;;;13.25;8.55;;;;;;;14.93;62.89;97264.09;1650079;85;25847;-75
2022/11/09 09:56:10;;;;;;;13.40;8.15;;;;;;;15.16;62.53;97253.65;1642087;87;27414;-74
2022/11/09 09:58:43;;;;;;;12.93;9.03;;;;;;;15.38;61.95;97251.86;1544900;92;25536;-76
2022/11/09 10:01:22;;;;;;;13.70;8.88;;;;;;;15.46;61.34;97233.77;1534805;93;25846;-73
2022/11/09 10:03:50;;;;;;;15.30;8.43;;;;;;;15.63;61.19;97235.72;1519124;94;25766;-75
2022/11/09 10:06:43;;;;;;;13.90;9.68;;;;;;;15.92;60.89;97238.64;1518995;94;25334;-74
2022/11/09 10:09:45;;;;;;;12.60;8.75;;;;;;;16.11;60.41;97226.39;1515007;94;27424;-74
2022/11/09 10:12:42;;;;;;;10.95;7.95;;;;;;;16.16;59.72;97222.92;1519224;94;25571;-73
2022/11/09 10:15:39;;;;;;;10.58;8.05;;;;;;;16.10;58.91;97225.27;1519011;94;25827;-74
2022/11/09 10:18:17;;;;;;;13.55;8.63;;;;;;;15.98;59.03;97219.93;1518910;94;25794;-73
2022/11/09 10:21:18;;;;;;;12.47;8.65;;;;;;;15.95;58.76;97220.42;1517287;94;25780;-73
2022/11/09 10:24:12;;;;;;;12.95;9.48;;;;;;;15.90;58.53;97216.28;1516381;94;27475;-73
2022/11/09 10:26:55;;;;;;;12.33;9.08;;;;;;;15.94;58.63;97213.33;1518698;94;25725;-74
2022/11/09 10:29:26;;;;;;;;;;;;;;;15.95;58.30;97209.53;1504262;95;25954;-76
2022/11/09 10:32:16;;;;;;;13.93;9.00;;;;;;;15.91;56.86;97202.96;1502037;95;25866;-74
2022/11/09 10:35:08;;;;;;;13.30;9.05;;;;;;;15.82;57.71;97202.55;1494856;95;26926;-74
2022/11/09 10:37:42;;;;;;;14.53;9.53;;;;;;;15.79;57.69;97196.80;1496894;94;27489;-75
2022/11/09 10:40:17;;;;;;;13.55;9.35;;;;;;;15.77;57.61;97196.22;1494723;95;25869;-74
2022/11/09 10:42:57;;;;;;;13.38;9.80;;;;;;;15.75;57.46;97183.39;1554466;92;25814;-73
2022/11/09 10:45:34;;;;;;;15.40;9.63;;;;;;;15.70;57.29;97184.12;1552560;92;26316;-77
2022/11/09 10:48:02;;;;;;;13.93;9.98;;;;;;;15.59;57.10;97194.56;1551281;92;25839;-76
2022/11/09 10:50:52;;;;;;;13.93;9.03;;;;;;;15.50;57.03;97188.69;1556925;91;28222;-74
2022/11/09 10:53:26;;;;;;;12.88;8.83;;;;;;;15.45;57.29;97184.55;1530678;92;25784;-74
2022/11/09 10:56:16;;;;;;;12.75;9.00;;;;;;;15.43;56.96;97184.50;1538919;92;25552;-75
2022/11/09 10:58:52;;;;;;;13.25;9.33;;;;;;;15.49;57.13;97188.94;1548120;92;25905;-76
2022/11/09 11:01:29;;;;;;;12.90;8.90;;;;;;;15.55;56.92;97185.81;1548063;92;25844;-73
2022/11/09 11:03:56;;;;;;;13.00;8.85;;;;;;;15.54;56.75;97185.48;1546930;92;28069;-73
2022/11/09 11:06:30;;;;;;;13.70;8.68;;;;;;;15.46;56.65;97190.25;1508142;92;26037;-74
2022/11/09 11:09:06;;;;;;;16.62;9.70;;;;;;;15.44;56.65;97184.80;1492697;94;25875;-75
2022/11/09 11:11:36;;;;;;;11.22;8.48;;;;;;;15.45;56.55;97187.80;1492770;96;25704;-74
2022/11/09 11:14:29;;;;;;;10.00;7.85;;;;;;;15.45;56.30;97180.47;1492496;96;25407;-73
2022/11/09 11:16:55;;;;;;;12.43;8.33;;;;;;;15.49;56.37;97180.24;1492626;96;28276;-75
2022/11/09 11:19:40;;;;;;;12.53;9.10;;;;;;;15.53;56.00;97181.11;1502828;91;25603;-74
2022/11/09 11:22:23;;;;;;;13.38;9.05;;;;;;;15.50;56.18;97179.17;1568402;91;25868;-75
2022/11/09 11:25:07;;;;;;;12.60;8.48;;;;;;;15.53;56.17;97178.39;1579340;86;25743;-74
2022/11/09 11:27:59;;;;;;;13.45;9.75;;;;;;;15.52;55.96;97178.10;1719869;83;32215;-75
2022/11/09 11:30:33;;;;;;;13.22;9.05;;;;;;;15.58;56.10;97179.88;1718655;83;28202;-74
2022/11/09 11:33:00;;;;;;;13.85;8.70;;;;;;;15.78;56.20;97176.09;1624708;88;25741;-74
2022/11/09 11:35:59;;;;;;;10.23;8.35;;;;;;;15.94;55.33;97171.70;1624709;88;26907;-74
2022/11/09 11:38:40;;;;;;;11.85;8.65;;;;;;;16.00;55.59;97165.23;1624805;88;26583;-74
2022/11/09 11:41:30;;;;;;;12.45;8.58;;;;;;;16.15;55.49;97169.00;1625012;88;25500;-76
2022/11/09 11:44:31;;;;;;;13.78;9.23;;;;;;;16.36;55.49;97174.16;1625017;88;27466;-77
2022/11/09 11:47:09;;;;;;;11.88;7.90;;;;;;;16.60;55.16;97170.63;1620535;88;25488;-74